sensor_id;sensor_type;location;lat;lon;timestamp;P1;durP1;ratioP1;P2;durP2;ratioP2
63536;SDS011;49686;51.880;5.632;2022-10-16T00:00:38;11.05;;;4.25;;
63536;SDS011;49686;51.880;5.632;2022-10-16T00:03:07;11.13;;;4.10;;
63536;SDS011;49686;51.880;5.632;2022-10-16T00:05:37;5.45;;;3.50;;
63536;SDS011;49686;51.880;5.632;2022-10-16T00:08:07;6.75;;;4.85;;
63536;SDS011;49686;51.880;5.632;2022-10-16T00:10:36;5.57;;;3.95;;
63536;SDS011;49686;51.880;5.632;2022-10-16T00:13:03;7.10;;;4.60;;
63536;SDS011;49686;51.880;5.632;2022-10-16T00:15:32;8.13;;;4.20;;
63536;SDS011;49686;51.880;5.632;2022-10-16T00:17:59;7.85;;;5.05;;
63536;SDS011;49686;51.880;5.632;2022-10-16T00:20:26;7.18;;;4.15;;
63536;SDS011;49686;51.880;5.632;2022-10-16T00:22:53;7.85;;;4.60;;
63536;SDS011;49686;51.880;5.632;2022-10-16T00:25:20;9.32;;;4.05;;
63536;SDS011;49686;51.880;5.632;2022-10-16T00:27:48;7.28;;;4.20;;
63536;SDS011;49686;51.880;5.632;2022-10-16T00:30:15;7.13;;;4.47;;
63536;SDS011;49686;51.880;5.632;2022-10-16T00:32:42;8.98;;;4.18;;
63536;SDS011;49686;51.880;5.632;2022-10-16T00:35:09;7.95;;;4.22;;
63536;SDS011;49686;51.880;5.632;2022-10-16T00:37:36;8.40;;;4.35;;
63536;SDS011;49686;51.880;5.632;2022-10-16T00:40:03;7.03;;;4.60;;
63536;SDS011;49686;51.880;5.632;2022-10-16T00:42:31;8.63;;;5.03;;
63536;SDS011;49686;51.880;5.632;2022-10-16T00:44:59;9.00;;;4.18;;
63536;SDS011;49686;51.880;5.632;2022-10-16T00:47:27;8.20;;;4.73;;
63536;SDS011;49686;51.880;5.632;2022-10-16T00:49:58;6.90;;;3.92;;
63536;SDS011;49686;51.880;5.632;2022-10-16T00:52:28;6.38;;;3.70;;
63536;SDS011;49686;51.880;5.632;2022-10-16T00:54:55;7.93;;;4.80;;
63536;SDS011;49686;51.880;5.632;2022-10-16T00:57:23;6.65;;;4.13;;
63536;SDS011;49686;51.880;5.632;2022-10-16T00:59:51;6.30;;;3.72;;
63536;SDS011;49686;51.880;5.632;2022-10-16T01:02:20;6.75;;;4.20;;
63536;SDS011;49686;51.880;5.632;2022-10-16T01:04:48;4.67;;;3.80;;
63536;SDS011;49686;51.880;5.632;2022-10-16T01:07:20;8.80;;;4.15;;
63536;SDS011;49686;51.880;5.632;2022-10-16T01:10:03;5.25;;;4.30;;
63536;SDS011;49686;51.880;5.632;2022-10-16T01:12:39;5.35;;;3.10;;
63536;SDS011;49686;51.880;5.632;2022-10-16T01:15:14;7.88;;;4.13;;
63536;SDS011;49686;51.880;5.632;2022-10-16T01:17:53;6.53;;;4.40;;
63536;SDS011;49686;51.880;5.632;2022-10-16T01:20:27;6.78;;;3.72;;
63536;SDS011;49686;51.880;5.632;2022-10-16T01:23:00;6.78;;;3.92;;
63536;SDS011;49686;51.880;5.632;2022-10-16T01:25:36;7.22;;;4.85;;
63536;SDS011;49686;51.880;5.632;2022-10-16T01:28:17;7.78;;;5.05;;
63536;SDS011;49686;51.880;5.632;2022-10-16T01:30:46;6.60;;;4.05;;
63536;SDS011;49686;51.880;5.632;2022-10-16T01:33:17;4.75;;;3.30;;
63536;SDS011;49686;51.880;5.632;2022-10-16T01:35:47;5.82;;;4.00;;
63536;SDS011;49686;51.880;5.632;2022-10-16T01:38:19;5.63;;;3.97;;
63536;SDS011;49686;51.880;5.632;2022-10-16T01:40:52;5.40;;;3.25;;
63536;SDS011;49686;51.880;5.632;2022-10-16T01:43:26;7.07;;;4.20;;
63536;SDS011;49686;51.880;5.632;2022-10-16T01:45:59;5.30;;;3.20;;
63536;SDS011;49686;51.880;5.632;2022-10-16T01:48:27;6.72;;;4.00;;
63536;SDS011;49686;51.880;5.632;2022-10-16T01:50:56;7.63;;;3.70;;
63536;SDS011;49686;51.880;5.632;2022-10-16T01:53:27;6.35;;;2.58;;
63536;SDS011;49686;51.880;5.632;2022-10-16T01:55:54;6.15;;;3.33;;
63536;SDS011;49686;51.880;5.632;2022-10-16T01:58:24;7.97;;;3.20;;
63536;SDS011;49686;51.880;5.632;2022-10-16T02:00:54;5.10;;;2.60;;
63536;SDS011;49686;51.880;5.632;2022-10-16T02:03:21;5.97;;;3.38;;
63536;SDS011;49686;51.880;5.632;2022-10-16T02:05:49;4.75;;;3.20;;
63536;SDS011;49686;51.880;5.632;2022-10-16T02:08:19;5.10;;;2.95;;
63536;SDS011;49686;51.880;5.632;2022-10-16T02:10:46;3.72;;;2.70;;
63536;SDS011;49686;51.880;5.632;2022-10-16T02:13:14;8.30;;;3.85;;
63536;SDS011;49686;51.880;5.632;2022-10-16T02:15:48;4.72;;;2.90;;
63536;SDS011;49686;51.880;5.632;2022-10-16T02:18:14;4.30;;;3.10;;
63536;SDS011;49686;51.880;5.632;2022-10-16T02:20:43;5.90;;;2.78;;
63536;SDS011;49686;51.880;5.632;2022-10-16T02:23:24;7.95;;;2.97;;
63536;SDS011;49686;51.880;5.632;2022-10-16T02:26:00;4.93;;;3.53;;
63536;SDS011;49686;51.880;5.632;2022-10-16T02:28:32;3.92;;;2.75;;
63536;SDS011;49686;51.880;5.632;2022-10-16T02:31:06;5.63;;;2.90;;
63536;SDS011;49686;51.880;5.632;2022-10-16T02:33:36;4.93;;;2.72;;
63536;SDS011;49686;51.880;5.632;2022-10-16T02:36:05;7.25;;;2.88;;
63536;SDS011;49686;51.880;5.632;2022-10-16T02:38:33;5.47;;;3.22;;
63536;SDS011;49686;51.880;5.632;2022-10-16T02:41:01;3.78;;;2.95;;
63536;SDS011;49686;51.880;5.632;2022-10-16T02:43:29;4.15;;;2.72;;
63536;SDS011;49686;51.880;5.632;2022-10-16T02:45:56;4.57;;;2.55;;
63536;SDS011;49686;51.880;5.632;2022-10-16T02:48:24;5.53;;;2.83;;
63536;SDS011;49686;51.880;5.632;2022-10-16T02:50:51;3.90;;;2.63;;
63536;SDS011;49686;51.880;5.632;2022-10-16T02:53:18;3.97;;;3.10;;
63536;SDS011;49686;51.880;5.632;2022-10-16T02:55:45;3.13;;;2.38;;
63536;SDS011;49686;51.880;5.632;2022-10-16T02:58:12;6.00;;;3.28;;
63536;SDS011;49686;51.880;5.632;2022-10-16T03:00:39;4.25;;;2.67;;
63536;SDS011;49686;51.880;5.632;2022-10-16T03:03:06;5.13;;;2.90;;
63536;SDS011;49686;51.880;5.632;2022-10-16T03:05:34;3.28;;;2.72;;
63536;SDS011;49686;51.880;5.632;2022-10-16T03:08:01;7.07;;;3.10;;
63536;SDS011;49686;51.880;5.632;2022-10-16T03:10:28;3.47;;;2.90;;
63536;SDS011;49686;51.880;5.632;2022-10-16T03:12:55;3.30;;;2.70;;
63536;SDS011;49686;51.880;5.632;2022-10-16T03:15:22;4.75;;;2.85;;
63536;SDS011;49686;51.880;5.632;2022-10-16T03:17:49;3.22;;;2.33;;
63536;SDS011;49686;51.880;5.632;2022-10-16T03:20:16;4.30;;;2.95;;
63536;SDS011;49686;51.880;5.632;2022-10-16T03:22:44;4.55;;;3.25;;
63536;SDS011;49686;51.880;5.632;2022-10-16T03:25:11;5.47;;;3.53;;
63536;SDS011;49686;51.880;5.632;2022-10-16T03:27:38;5.20;;;2.42;;
63536;SDS011;49686;51.880;5.632;2022-10-16T03:30:06;3.90;;;2.33;;
63536;SDS011;49686;51.880;5.632;2022-10-16T03:32:34;3.97;;;3.55;;
63536;SDS011;49686;51.880;5.632;2022-10-16T03:35:06;3.47;;;2.90;;
63536;SDS011;49686;51.880;5.632;2022-10-16T03:37:34;7.40;;;3.57;;
63536;SDS011;49686;51.880;5.632;2022-10-16T03:40:02;4.03;;;2.55;;
63536;SDS011;49686;51.880;5.632;2022-10-16T03:42:29;3.67;;;2.55;;
63536;SDS011;49686;51.880;5.632;2022-10-16T03:44:56;3.10;;;2.45;;
63536;SDS011;49686;51.880;5.632;2022-10-16T03:47:23;4.32;;;2.78;;
63536;SDS011;49686;51.880;5.632;2022-10-16T03:49:50;3.90;;;2.50;;
63536;SDS011;49686;51.880;5.632;2022-10-16T03:52:17;3.70;;;2.47;;
63536;SDS011;49686;51.880;5.632;2022-10-16T03:54:49;8.13;;;2.65;;
63536;SDS011;49686;51.880;5.632;2022-10-16T03:57:17;5.72;;;3.15;;
63536;SDS011;49686;51.880;5.632;2022-10-16T03:59:45;3.08;;;2.33;;
63536;SDS011;49686;51.880;5.632;2022-10-16T04:02:11;6.15;;;2.80;;
63536;SDS011;49686;51.880;5.632;2022-10-16T04:04:38;3.65;;;2.53;;
63536;SDS011;49686;51.880;5.632;2022-10-16T04:07:06;3.85;;;3.00;;
63536;SDS011;49686;51.880;5.632;2022-10-16T04:09:32;4.22;;;2.90;;
63536;SDS011;49686;51.880;5.632;2022-10-16T04:11:59;3.45;;;2.38;;
63536;SDS011;49686;51.880;5.632;2022-10-16T04:14:28;4.60;;;2.35;;
63536;SDS011;49686;51.880;5.632;2022-10-16T04:16:54;3.53;;;2.60;;
63536;SDS011;49686;51.880;5.632;2022-10-16T04:19:21;4.13;;;2.58;;
63536;SDS011;49686;51.880;5.632;2022-10-16T04:21:48;7.97;;;2.60;;
63536;SDS011;49686;51.880;5.632;2022-10-16T04:24:15;3.28;;;2.38;;
63536;SDS011;49686;51.880;5.632;2022-10-16T04:26:42;3.25;;;2.35;;
63536;SDS011;49686;51.880;5.632;2022-10-16T04:29:09;7.13;;;2.75;;
63536;SDS011;49686;51.880;5.632;2022-10-16T04:31:37;4.18;;;2.88;;
63536;SDS011;49686;51.880;5.632;2022-10-16T04:34:04;5.30;;;2.77;;
63536;SDS011;49686;51.880;5.632;2022-10-16T04:36:31;3.90;;;2.47;;
63536;SDS011;49686;51.880;5.632;2022-10-16T04:38:58;3.25;;;2.63;;
63536;SDS011;49686;51.880;5.632;2022-10-16T04:41:25;6.68;;;2.83;;
63536;SDS011;49686;51.880;5.632;2022-10-16T04:43:52;6.45;;;3.10;;
63536;SDS011;49686;51.880;5.632;2022-10-16T04:46:19;5.30;;;2.65;;
63536;SDS011;49686;51.880;5.632;2022-10-16T04:48:47;4.45;;;2.55;;
63536;SDS011;49686;51.880;5.632;2022-10-16T04:51:14;7.15;;;2.97;;
63536;SDS011;49686;51.880;5.632;2022-10-16T04:53:41;3.30;;;2.65;;
63536;SDS011;49686;51.880;5.632;2022-10-16T04:56:08;3.65;;;2.60;;
63536;SDS011;49686;51.880;5.632;2022-10-16T04:58:35;4.03;;;2.50;;
63536;SDS011;49686;51.880;5.632;2022-10-16T05:01:02;4.07;;;2.35;;
63536;SDS011;49686;51.880;5.632;2022-10-16T05:03:29;5.68;;;3.10;;
63536;SDS011;49686;51.880;5.632;2022-10-16T05:06:04;5.35;;;3.42;;
63536;SDS011;49686;51.880;5.632;2022-10-16T05:08:31;5.25;;;2.92;;
63536;SDS011;49686;51.880;5.632;2022-10-16T05:10:58;4.72;;;2.70;;
63536;SDS011;49686;51.880;5.632;2022-10-16T05:13:25;4.25;;;3.20;;
63536;SDS011;49686;51.880;5.632;2022-10-16T05:15:52;4.05;;;2.40;;
63536;SDS011;49686;51.880;5.632;2022-10-16T05:18:19;4.95;;;2.45;;
63536;SDS011;49686;51.880;5.632;2022-10-16T05:20:46;4.82;;;2.90;;
63536;SDS011;49686;51.880;5.632;2022-10-16T05:23:14;4.97;;;2.25;;
63536;SDS011;49686;51.880;5.632;2022-10-16T05:25:41;3.17;;;2.20;;
63536;SDS011;49686;51.880;5.632;2022-10-16T05:28:08;4.40;;;2.78;;
63536;SDS011;49686;51.880;5.632;2022-10-16T05:30:36;4.47;;;2.40;;
63536;SDS011;49686;51.880;5.632;2022-10-16T05:33:03;3.80;;;2.33;;
63536;SDS011;49686;51.880;5.632;2022-10-16T05:35:31;4.53;;;2.50;;
63536;SDS011;49686;51.880;5.632;2022-10-16T05:37:57;2.88;;;2.17;;
63536;SDS011;49686;51.880;5.632;2022-10-16T05:40:25;3.42;;;2.50;;
63536;SDS011;49686;51.880;5.632;2022-10-16T05:42:54;3.78;;;2.30;;
63536;SDS011;49686;51.880;5.632;2022-10-16T05:45:21;4.43;;;2.83;;
63536;SDS011;49686;51.880;5.632;2022-10-16T05:47:48;4.72;;;2.85;;
63536;SDS011;49686;51.880;5.632;2022-10-16T05:50:15;4.20;;;2.38;;
63536;SDS011;49686;51.880;5.632;2022-10-16T05:52:42;3.88;;;2.60;;
63536;SDS011;49686;51.880;5.632;2022-10-16T05:55:09;3.83;;;2.30;;
63536;SDS011;49686;51.880;5.632;2022-10-16T05:57:37;4.35;;;2.80;;
63536;SDS011;49686;51.880;5.632;2022-10-16T06:00:04;3.97;;;2.20;;
63536;SDS011;49686;51.880;5.632;2022-10-16T06:02:32;4.75;;;2.60;;
63536;SDS011;49686;51.880;5.632;2022-10-16T06:05:00;6.03;;;2.80;;
63536;SDS011;49686;51.880;5.632;2022-10-16T06:07:26;3.83;;;2.92;;
63536;SDS011;49686;51.880;5.632;2022-10-16T06:09:54;4.38;;;2.50;;
63536;SDS011;49686;51.880;5.632;2022-10-16T06:12:21;4.20;;;2.55;;
63536;SDS011;49686;51.880;5.632;2022-10-16T06:14:49;3.10;;;2.70;;
63536;SDS011;49686;51.880;5.632;2022-10-16T06:17:16;4.93;;;2.50;;
63536;SDS011;49686;51.880;5.632;2022-10-16T06:19:43;4.80;;;2.67;;
63536;SDS011;49686;51.880;5.632;2022-10-16T06:22:10;3.65;;;2.63;;
63536;SDS011;49686;51.880;5.632;2022-10-16T06:24:37;3.97;;;2.83;;
63536;SDS011;49686;51.880;5.632;2022-10-16T06:27:04;7.88;;;2.72;;
63536;SDS011;49686;51.880;5.632;2022-10-16T06:29:31;4.47;;;3.47;;
63536;SDS011;49686;51.880;5.632;2022-10-16T06:31:59;3.38;;;2.90;;
63536;SDS011;49686;51.880;5.632;2022-10-16T06:34:27;4.25;;;2.75;;
63536;SDS011;49686;51.880;5.632;2022-10-16T06:36:53;5.07;;;3.20;;
63536;SDS011;49686;51.880;5.632;2022-10-16T06:39:20;4.43;;;2.47;;
63536;SDS011;49686;51.880;5.632;2022-10-16T06:41:48;4.63;;;2.55;;
63536;SDS011;49686;51.880;5.632;2022-10-16T06:44:14;5.50;;;2.80;;
63536;SDS011;49686;51.880;5.632;2022-10-16T06:46:41;3.67;;;3.38;;
63536;SDS011;49686;51.880;5.632;2022-10-16T06:49:10;5.75;;;2.70;;
63536;SDS011;49686;51.880;5.632;2022-10-16T06:51:37;2.60;;;2.00;;
63536;SDS011;49686;51.880;5.632;2022-10-16T06:54:09;5.78;;;2.75;;
63536;SDS011;49686;51.880;5.632;2022-10-16T06:56:36;4.10;;;2.42;;
63536;SDS011;49686;51.880;5.632;2022-10-16T06:59:03;5.22;;;2.92;;
63536;SDS011;49686;51.880;5.632;2022-10-16T07:01:31;3.50;;;2.50;;
63536;SDS011;49686;51.880;5.632;2022-10-16T07:03:58;4.07;;;3.60;;
63536;SDS011;49686;51.880;5.632;2022-10-16T07:06:27;7.30;;;2.75;;
63536;SDS011;49686;51.880;5.632;2022-10-16T07:09:00;6.80;;;3.35;;
63536;SDS011;49686;51.880;5.632;2022-10-16T07:11:29;5.45;;;2.97;;
63536;SDS011;49686;51.880;5.632;2022-10-16T07:13:56;5.85;;;3.00;;
63536;SDS011;49686;51.880;5.632;2022-10-16T07:16:24;4.22;;;2.30;;
63536;SDS011;49686;51.880;5.632;2022-10-16T07:18:53;3.22;;;2.30;;
63536;SDS011;49686;51.880;5.632;2022-10-16T07:21:21;3.45;;;2.40;;
63536;SDS011;49686;51.880;5.632;2022-10-16T07:23:51;3.28;;;2.58;;
63536;SDS011;49686;51.880;5.632;2022-10-16T07:26:18;3.55;;;2.25;;
63536;SDS011;49686;51.880;5.632;2022-10-16T07:28:45;3.08;;;2.30;;
63536;SDS011;49686;51.880;5.632;2022-10-16T07:31:13;4.50;;;2.30;;
63536;SDS011;49686;51.880;5.632;2022-10-16T07:33:42;4.07;;;2.50;;
63536;SDS011;49686;51.880;5.632;2022-10-16T07:38:42;3.58;;;2.50;;
63536;SDS011;49686;51.880;5.632;2022-10-16T07:41:11;4.95;;;2.42;;
63536;SDS011;49686;51.880;5.632;2022-10-16T07:43:39;4.15;;;2.20;;
63536;SDS011;49686;51.880;5.632;2022-10-16T07:46:11;3.58;;;2.10;;
63536;SDS011;49686;51.880;5.632;2022-10-16T07:48:38;6.10;;;2.60;;
63536;SDS011;49686;51.880;5.632;2022-10-16T07:51:05;5.45;;;2.00;;
63536;SDS011;49686;51.880;5.632;2022-10-16T07:53:33;6.32;;;2.40;;
63536;SDS011;49686;51.880;5.632;2022-10-16T07:56:01;4.38;;;2.28;;
63536;SDS011;49686;51.880;5.632;2022-10-16T07:58:31;5.15;;;2.08;;
63536;SDS011;49686;51.880;5.632;2022-10-16T08:01:02;5.57;;;2.60;;
63536;SDS011;49686;51.880;5.632;2022-10-16T08:03:30;4.70;;;1.90;;
63536;SDS011;49686;51.880;5.632;2022-10-16T08:05:58;6.57;;;2.17;;
63536;SDS011;49686;51.880;5.632;2022-10-16T08:08:26;4.82;;;2.72;;
63536;SDS011;49686;51.880;5.632;2022-10-16T08:10:53;7.35;;;2.85;;
63536;SDS011;49686;51.880;5.632;2022-10-16T08:13:20;4.63;;;2.20;;
63536;SDS011;49686;51.880;5.632;2022-10-16T08:15:49;5.00;;;1.63;;
63536;SDS011;49686;51.880;5.632;2022-10-16T08:18:16;5.93;;;1.67;;
63536;SDS011;49686;51.880;5.632;2022-10-16T08:20:42;5.07;;;1.70;;
63536;SDS011;49686;51.880;5.632;2022-10-16T08:23:10;2.30;;;1.58;;
63536;SDS011;49686;51.880;5.632;2022-10-16T08:25:38;2.38;;;1.80;;
63536;SDS011;49686;51.880;5.632;2022-10-16T08:28:06;3.58;;;2.45;;
63536;SDS011;49686;51.880;5.632;2022-10-16T08:30:35;2.53;;;1.70;;
63536;SDS011;49686;51.880;5.632;2022-10-16T08:33:03;3.30;;;1.70;;
63536;SDS011;49686;51.880;5.632;2022-10-16T08:35:30;5.82;;;2.00;;
63536;SDS011;49686;51.880;5.632;2022-10-16T08:37:57;5.57;;;2.13;;
63536;SDS011;49686;51.880;5.632;2022-10-16T08:40:24;5.35;;;2.05;;
63536;SDS011;49686;51.880;5.632;2022-10-16T08:42:57;4.70;;;2.17;;
63536;SDS011;49686;51.880;5.632;2022-10-16T08:45:41;4.68;;;2.97;;
63536;SDS011;49686;51.880;5.632;2022-10-16T08:48:17;3.20;;;1.90;;
63536;SDS011;49686;51.880;5.632;2022-10-16T08:50:48;7.68;;;2.15;;
63536;SDS011;49686;51.880;5.632;2022-10-16T08:53:17;7.20;;;1.92;;
63536;SDS011;49686;51.880;5.632;2022-10-16T08:55:51;7.43;;;1.83;;
63536;SDS011;49686;51.880;5.632;2022-10-16T08:58:19;3.67;;;1.60;;
63536;SDS011;49686;51.880;5.632;2022-10-16T09:00:49;6.45;;;1.73;;
63536;SDS011;49686;51.880;5.632;2022-10-16T09:03:23;5.80;;;2.20;;
63536;SDS011;49686;51.880;5.632;2022-10-16T09:06:00;4.68;;;1.70;;
63536;SDS011;49686;51.880;5.632;2022-10-16T09:08:42;3.30;;;1.55;;
63536;SDS011;49686;51.880;5.632;2022-10-16T09:11:21;4.80;;;2.00;;
63536;SDS011;49686;51.880;5.632;2022-10-16T09:13:54;8.32;;;2.35;;
63536;SDS011;49686;51.880;5.632;2022-10-16T09:16:33;4.10;;;1.52;;
63536;SDS011;49686;51.880;5.632;2022-10-16T09:19:12;7.82;;;1.88;;
63536;SDS011;49686;51.880;5.632;2022-10-16T09:21:44;4.07;;;1.50;;
63536;SDS011;49686;51.880;5.632;2022-10-16T09:24:13;2.80;;;1.52;;
63536;SDS011;49686;51.880;5.632;2022-10-16T09:26:41;3.72;;;1.65;;
63536;SDS011;49686;51.880;5.632;2022-10-16T09:29:08;6.28;;;2.17;;
63536;SDS011;49686;51.880;5.632;2022-10-16T09:31:38;5.22;;;1.80;;
63536;SDS011;49686;51.880;5.632;2022-10-16T09:34:06;6.25;;;1.70;;
63536;SDS011;49686;51.880;5.632;2022-10-16T09:36:42;11.32;;;2.30;;
63536;SDS011;49686;51.880;5.632;2022-10-16T09:39:12;6.78;;;1.67;;
63536;SDS011;49686;51.880;5.632;2022-10-16T09:41:39;4.03;;;1.83;;
63536;SDS011;49686;51.880;5.632;2022-10-16T09:44:15;7.57;;;1.88;;
63536;SDS011;49686;51.880;5.632;2022-10-16T09:46:47;3.67;;;1.70;;
63536;SDS011;49686;51.880;5.632;2022-10-16T09:49:20;5.75;;;1.50;;
63536;SDS011;49686;51.880;5.632;2022-10-16T09:51:48;5.95;;;1.42;;
63536;SDS011;49686;51.880;5.632;2022-10-16T09:54:17;5.35;;;1.33;;
63536;SDS011;49686;51.880;5.632;2022-10-16T09:56:45;8.70;;;1.73;;
63536;SDS011;49686;51.880;5.632;2022-10-16T09:59:12;8.68;;;2.35;;
63536;SDS011;49686;51.880;5.632;2022-10-16T10:01:41;5.65;;;2.17;;
63536;SDS011;49686;51.880;5.632;2022-10-16T10:04:11;5.78;;;1.48;;
63536;SDS011;49686;51.880;5.632;2022-10-16T10:06:43;8.75;;;2.38;;
63536;SDS011;49686;51.880;5.632;2022-10-16T10:09:16;7.10;;;1.88;;
63536;SDS011;49686;51.880;5.632;2022-10-16T10:11:48;6.18;;;1.52;;
63536;SDS011;49686;51.880;5.632;2022-10-16T10:14:19;7.13;;;1.90;;
63536;SDS011;49686;51.880;5.632;2022-10-16T10:16:51;7.65;;;2.25;;
63536;SDS011;49686;51.880;5.632;2022-10-16T10:19:20;8.07;;;1.40;;
63536;SDS011;49686;51.880;5.632;2022-10-16T10:21:50;7.30;;;2.33;;
63536;SDS011;49686;51.880;5.632;2022-10-16T10:24:17;11.50;;;1.60;;
63536;SDS011;49686;51.880;5.632;2022-10-16T10:26:48;7.90;;;2.13;;
63536;SDS011;49686;51.880;5.632;2022-10-16T10:29:23;7.72;;;1.75;;
63536;SDS011;49686;51.880;5.632;2022-10-16T10:32:04;11.30;;;2.00;;
63536;SDS011;49686;51.880;5.632;2022-10-16T10:34:45;8.95;;;1.75;;
63536;SDS011;49686;51.880;5.632;2022-10-16T10:37:31;11.38;;;2.10;;
63536;SDS011;49686;51.880;5.632;2022-10-16T10:40:13;5.90;;;1.52;;
63536;SDS011;49686;51.880;5.632;2022-10-16T10:42:50;8.20;;;1.40;;
63536;SDS011;49686;51.880;5.632;2022-10-16T10:45:24;9.65;;;1.77;;
63536;SDS011;49686;51.880;5.632;2022-10-16T10:48:00;6.05;;;1.65;;
63536;SDS011;49686;51.880;5.632;2022-10-16T10:50:39;5.15;;;1.70;;
63536;SDS011;49686;51.880;5.632;2022-10-16T10:53:15;5.72;;;1.52;;
63536;SDS011;49686;51.880;5.632;2022-10-16T10:55:51;7.70;;;1.60;;
63536;SDS011;49686;51.880;5.632;2022-10-16T11:01:31;6.97;;;1.75;;
63536;SDS011;49686;51.880;5.632;2022-10-16T11:04:12;11.37;;;2.00;;
63536;SDS011;49686;51.880;5.632;2022-10-16T11:06:59;6.57;;;1.45;;
63536;SDS011;49686;51.880;5.632;2022-10-16T11:09:32;6.20;;;1.40;;
63536;SDS011;49686;51.880;5.632;2022-10-16T11:12:05;8.93;;;1.63;;
63536;SDS011;49686;51.880;5.632;2022-10-16T11:14:36;7.55;;;1.38;;
63536;SDS011;49686;51.880;5.632;2022-10-16T11:17:08;8.73;;;2.13;;
63536;SDS011;49686;51.880;5.632;2022-10-16T11:19:39;7.82;;;1.90;;
63536;SDS011;49686;51.880;5.632;2022-10-16T11:22:13;7.43;;;1.63;;
63536;SDS011;49686;51.880;5.632;2022-10-16T11:24:47;6.68;;;1.55;;
63536;SDS011;49686;51.880;5.632;2022-10-16T11:27:23;9.10;;;1.70;;
63536;SDS011;49686;51.880;5.632;2022-10-16T11:29:57;7.57;;;1.45;;
63536;SDS011;49686;51.880;5.632;2022-10-16T11:32:28;6.72;;;1.40;;
63536;SDS011;49686;51.880;5.632;2022-10-16T11:35:04;7.80;;;1.63;;
63536;SDS011;49686;51.880;5.632;2022-10-16T11:37:50;7.10;;;1.70;;
63536;SDS011;49686;51.880;5.632;2022-10-16T11:40:22;8.77;;;1.23;;
63536;SDS011;49686;51.880;5.632;2022-10-16T11:42:54;5.13;;;1.02;;
63536;SDS011;49686;51.880;5.632;2022-10-16T11:45:30;6.28;;;1.40;;
63536;SDS011;49686;51.880;5.632;2022-10-16T11:48:04;4.30;;;1.15;;
63536;SDS011;49686;51.880;5.632;2022-10-16T11:50:39;12.23;;;1.63;;
63536;SDS011;49686;51.880;5.632;2022-10-16T11:53:13;8.10;;;1.77;;
63536;SDS011;49686;51.880;5.632;2022-10-16T11:55:49;5.28;;;1.80;;
63536;SDS011;49686;51.880;5.632;2022-10-16T11:58:22;6.93;;;1.92;;
63536;SDS011;49686;51.880;5.632;2022-10-16T12:00:55;8.77;;;2.15;;
63536;SDS011;49686;51.880;5.632;2022-10-16T12:03:27;5.47;;;1.45;;
63536;SDS011;49686;51.880;5.632;2022-10-16T12:06:11;5.50;;;1.83;;
63536;SDS011;49686;51.880;5.632;2022-10-16T12:11:22;9.02;;;1.70;;
63536;SDS011;49686;51.880;5.632;2022-10-16T12:14:03;9.40;;;1.52;;
63536;SDS011;49686;51.880;5.632;2022-10-16T12:16:51;8.88;;;1.80;;
63536;SDS011;49686;51.880;5.632;2022-10-16T12:19:20;6.95;;;1.50;;
63536;SDS011;49686;51.880;5.632;2022-10-16T12:21:48;9.27;;;1.80;;
63536;SDS011;49686;51.880;5.632;2022-10-16T12:24:33;10.10;;;1.60;;
63536;SDS011;49686;51.880;5.632;2022-10-16T12:27:04;4.20;;;1.00;;
63536;SDS011;49686;51.880;5.632;2022-10-16T12:29:43;8.90;;;1.40;;
63536;SDS011;49686;51.880;5.632;2022-10-16T12:32:28;11.80;;;1.65;;
63536;SDS011;49686;51.880;5.632;2022-10-16T12:35:17;5.93;;;1.50;;
63536;SDS011;49686;51.880;5.632;2022-10-16T12:37:47;5.68;;;1.50;;
63536;SDS011;49686;51.880;5.632;2022-10-16T12:40:14;6.10;;;1.27;;
63536;SDS011;49686;51.880;5.632;2022-10-16T12:42:55;9.35;;;1.50;;
63536;SDS011;49686;51.880;5.632;2022-10-16T12:45:23;6.88;;;1.88;;
63536;SDS011;49686;51.880;5.632;2022-10-16T12:47:53;8.23;;;1.55;;
63536;SDS011;49686;51.880;5.632;2022-10-16T12:50:31;9.45;;;1.40;;
63536;SDS011;49686;51.880;5.632;2022-10-16T12:55:31;7.07;;;1.23;;
63536;SDS011;49686;51.880;5.632;2022-10-16T12:58:12;6.72;;;1.38;;
63536;SDS011;49686;51.880;5.632;2022-10-16T13:01:03;9.93;;;1.60;;
63536;SDS011;49686;51.880;5.632;2022-10-16T13:03:42;10.98;;;1.77;;
63536;SDS011;49686;51.880;5.632;2022-10-16T13:06:28;9.05;;;1.77;;
63536;SDS011;49686;51.880;5.632;2022-10-16T13:09:02;6.50;;;1.90;;
63536;SDS011;49686;51.880;5.632;2022-10-16T13:11:58;10.68;;;1.60;;
63536;SDS011;49686;51.880;5.632;2022-10-16T13:14:53;13.18;;;1.67;;
63536;SDS011;49686;51.880;5.632;2022-10-16T13:17:32;6.63;;;1.73;;
63536;SDS011;49686;51.880;5.632;2022-10-16T13:20:06;4.85;;;1.10;;
63536;SDS011;49686;51.880;5.632;2022-10-16T13:22:43;7.13;;;1.45;;
63536;SDS011;49686;51.880;5.632;2022-10-16T13:25:24;7.47;;;1.35;;
63536;SDS011;49686;51.880;5.632;2022-10-16T13:27:59;5.68;;;1.50;;
63536;SDS011;49686;51.880;5.632;2022-10-16T13:30:28;9.00;;;1.80;;
63536;SDS011;49686;51.880;5.632;2022-10-16T13:33:00;6.68;;;1.10;;
63536;SDS011;49686;51.880;5.632;2022-10-16T13:35:29;6.63;;;1.38;;
63536;SDS011;49686;51.880;5.632;2022-10-16T13:38:10;8.07;;;1.70;;
63536;SDS011;49686;51.880;5.632;2022-10-16T13:40:50;5.50;;;1.45;;
63536;SDS011;49686;51.880;5.632;2022-10-16T13:43:19;11.98;;;1.42;;
63536;SDS011;49686;51.880;5.632;2022-10-16T13:45:55;6.63;;;1.65;;
63536;SDS011;49686;51.880;5.632;2022-10-16T13:48:23;6.70;;;1.75;;
63536;SDS011;49686;51.880;5.632;2022-10-16T13:51:01;9.80;;;1.50;;
63536;SDS011;49686;51.880;5.632;2022-10-16T13:53:33;6.13;;;1.20;;
63536;SDS011;49686;51.880;5.632;2022-10-16T13:56:03;5.47;;;1.73;;
63536;SDS011;49686;51.880;5.632;2022-10-16T13:58:31;10.20;;;1.48;;
63536;SDS011;49686;51.880;5.632;2022-10-16T14:01:00;10.65;;;1.63;;
63536;SDS011;49686;51.880;5.632;2022-10-16T14:03:29;8.30;;;1.52;;
63536;SDS011;49686;51.880;5.632;2022-10-16T14:05:57;7.33;;;1.57;;
63536;SDS011;49686;51.880;5.632;2022-10-16T14:08:27;9.20;;;1.90;;
63536;SDS011;49686;51.880;5.632;2022-10-16T14:10:57;7.78;;;1.50;;
63536;SDS011;49686;51.880;5.632;2022-10-16T14:13:27;7.65;;;1.63;;
63536;SDS011;49686;51.880;5.632;2022-10-16T14:15:57;6.85;;;1.23;;
63536;SDS011;49686;51.880;5.632;2022-10-16T14:18:28;6.05;;;1.55;;
63536;SDS011;49686;51.880;5.632;2022-10-16T14:21:04;7.90;;;1.58;;
63536;SDS011;49686;51.880;5.632;2022-10-16T14:23:34;5.65;;;1.70;;
63536;SDS011;49686;51.880;5.632;2022-10-16T14:26:12;7.53;;;1.70;;
63536;SDS011;49686;51.880;5.632;2022-10-16T14:28:43;10.73;;;1.77;;
63536;SDS011;49686;51.880;5.632;2022-10-16T14:33:51;9.63;;;1.83;;
63536;SDS011;49686;51.880;5.632;2022-10-16T14:36:19;5.75;;;1.80;;
63536;SDS011;49686;51.880;5.632;2022-10-16T14:38:48;4.57;;;1.70;;
63536;SDS011;49686;51.880;5.632;2022-10-16T14:41:20;9.95;;;2.20;;
63536;SDS011;49686;51.880;5.632;2022-10-16T14:43:49;5.00;;;1.90;;
63536;SDS011;49686;51.880;5.632;2022-10-16T14:46:20;8.13;;;1.58;;
63536;SDS011;49686;51.880;5.632;2022-10-16T14:48:50;8.48;;;2.50;;
63536;SDS011;49686;51.880;5.632;2022-10-16T14:51:21;11.43;;;2.35;;
63536;SDS011;49686;51.880;5.632;2022-10-16T14:53:49;11.52;;;3.28;;
63536;SDS011;49686;51.880;5.632;2022-10-16T14:56:16;10.90;;;2.80;;
63536;SDS011;49686;51.880;5.632;2022-10-16T14:58:46;8.80;;;2.28;;
63536;SDS011;49686;51.880;5.632;2022-10-16T15:01:12;9.40;;;3.05;;
63536;SDS011;49686;51.880;5.632;2022-10-16T15:03:39;9.75;;;2.70;;
63536;SDS011;49686;51.880;5.632;2022-10-16T15:06:09;7.35;;;2.38;;
63536;SDS011;49686;51.880;5.632;2022-10-16T15:08:37;10.57;;;2.90;;
63536;SDS011;49686;51.880;5.632;2022-10-16T15:11:04;9.35;;;2.65;;
63536;SDS011;49686;51.880;5.632;2022-10-16T15:13:32;11.45;;;2.45;;
63536;SDS011;49686;51.880;5.632;2022-10-16T15:15:59;11.70;;;2.60;;
63536;SDS011;49686;51.880;5.632;2022-10-16T15:18:26;7.50;;;1.63;;
63536;SDS011;49686;51.880;5.632;2022-10-16T15:20:53;7.78;;;2.20;;